createdAt,value
2019-02-05T00:00:38.290Z,73.14
2019-02-05T00:03:09.898Z,73.48
2019-02-05T00:05:38.570Z,73.24
2019-02-05T00:08:07.243Z,73.04
2019-02-05T00:10:36.025Z,73.21
2019-02-05T00:13:05.813Z,72.91
2019-02-05T00:15:34.763Z,72.30
2019-02-05T00:18:03.427Z,72.32
2019-02-05T00:20:32.325Z,72.84
2019-02-05T00:23:01.174Z,72.62
2019-02-05T00:25:30.006Z,72.87
2019-02-05T00:27:58.691Z,72.63
2019-02-05T00:30:28.059Z,72.76
2019-02-05T00:32:56.718Z,73.43
2019-02-05T00:35:25.418Z,73.44
2019-02-05T00:37:54.422Z,73.70
2019-02-05T00:40:23.116Z,73.98
2019-02-05T00:42:52.238Z,73.74
2019-02-05T00:45:22.179Z,74.13
2019-02-05T00:47:50.838Z,73.68
2019-02-05T00:50:20.320Z,74.04
2019-02-05T00:52:49.886Z,73.56
2019-02-05T00:55:19.996Z,73.28
2019-02-05T00:57:48.765Z,72.95
2019-02-05T01:00:29.966Z,72.70
2019-02-05T01:02:59.146Z,72.56
2019-02-05T01:05:28.011Z,73.06
2019-02-05T01:07:57.476Z,72.87
2019-02-05T01:10:26.748Z,72.24
2019-02-05T01:12:55.998Z,72.67
2019-02-05T01:15:26.260Z,72.85
2019-02-05T01:17:55.260Z,73.45
2019-02-05T01:20:24.416Z,73.52
2019-02-05T01:22:53.629Z,72.54
2019-02-05T01:25:23.498Z,72.63
2019-02-05T01:27:52.758Z,72.59
2019-02-05T01:30:26.474Z,72.27
2019-02-05T01:32:55.244Z,72.48
2019-02-05T01:35:24.186Z,72.68
2019-02-05T01:37:53.364Z,72.46
2019-02-05T01:40:26.658Z,72.26
2019-02-05T01:42:55.922Z,72.09
2019-02-05T01:45:25.299Z,72.45
2019-02-05T01:47:54.342Z,73.12
2019-02-05T01:50:25.123Z,73.37
2019-02-05T01:52:54.193Z,73.13
2019-02-05T01:55:23.747Z,73.41
2019-02-05T01:57:52.788Z,73.26
2019-02-05T02:00:26.978Z,73.58
2019-02-05T02:02:55.681Z,73.21
2019-02-05T02:05:24.923Z,72.93
2019-02-05T02:07:53.584Z,73.14
2019-02-05T02:10:30.389Z,73.01
2019-02-05T02:12:59.569Z,73.22
2019-02-05T02:15:28.650Z,72.76
2019-02-05T02:17:57.356Z,73.83
2019-02-05T02:20:26.287Z,73.71
2019-02-05T02:22:55.239Z,74.08
2019-02-05T02:25:24.104Z,73.93
2019-02-05T02:27:52.944Z,74.15
2019-02-05T02:30:24.377Z,73.79
2019-02-05T02:32:53.102Z,74.37
2019-02-05T02:35:22.091Z,74.81
2019-02-05T02:37:51.339Z,74.73
2019-02-05T02:40:20.123Z,74.05
2019-02-05T02:42:48.873Z,73.98
2019-02-05T02:45:17.665Z,74.09
2019-02-05T02:47:46.440Z,74.15
2019-02-05T02:50:17.579Z,74.62
2019-02-05T02:52:46.781Z,74.66
2019-02-05T02:55:16.253Z,74.63
2019-02-05T02:57:45.552Z,74.69
2019-02-05T03:00:21.940Z,74.77
2019-02-05T03:02:51.854Z,74.51
2019-02-05T03:05:22.942Z,75.27
2019-02-05T03:07:52.655Z,75.95
2019-02-05T03:10:23.716Z,75.71
2019-02-05T03:12:52.977Z,75.00
2019-02-05T03:15:22.054Z,74.16
2019-02-05T03:17:50.712Z,74.08
2019-02-05T03:20:19.401Z,73.94
2019-02-05T03:22:48.098Z,74.75
2019-02-05T03:25:22.850Z,75.82
2019-02-05T03:27:53.698Z,75.56
2019-02-05T03:30:24.833Z,75.79
2019-02-05T03:32:55.542Z,75.63
2019-02-05T03:35:24.774Z,76.01
2019-02-05T03:37:53.493Z,75.70
2019-02-05T03:40:31.202Z,75.68
2019-02-05T03:43:00.169Z,75.22
2019-02-05T03:45:31.852Z,75.07
2019-02-05T03:48:02.962Z,75.28
2019-02-05T03:50:33.779Z,75.06
2019-02-05T03:53:11.643Z,75.50
2019-02-05T03:56:03.993Z,75.44
2019-02-05T03:58:56.381Z,75.18
2019-02-05T04:01:52.190Z,75.68
2019-02-05T04:04:33.123Z,75.83
2019-02-05T04:07:37.864Z,76.21
2019-02-05T04:10:25.908Z,76.19
2019-02-05T04:13:24.357Z,76.86
2019-02-05T04:16:13.615Z,76.82
2019-02-05T04:19:16.999Z,76.52
2019-02-05T04:21:57.865Z,76.43
2019-02-05T04:24:48.913Z,76.04
2019-02-05T04:27:25.995Z,76.48
2019-02-05T04:29:57.790Z,76.28
2019-02-05T04:32:48.771Z,76.46
2019-02-05T04:35:29.357Z,77.28
2019-02-05T04:38:21.886Z,77.22
2019-02-05T04:41:05.070Z,77.41
2019-02-05T04:43:42.586Z,76.80
2019-02-05T04:46:29.573Z,76.93
2019-02-05T04:49:04.499Z,76.62
2019-02-05T04:51:53.748Z,76.99
2019-02-05T04:54:34.098Z,77.40
2019-02-05T04:57:34.407Z,77.41
2019-02-05T05:00:32.990Z,77.20
2019-02-05T05:06:00.324Z,76.47
2019-02-05T05:08:34.683Z,76.07
2019-02-05T05:11:03.658Z,75.89
2019-02-05T05:13:33.055Z,75.60
2019-02-05T05:16:02.223Z,75.48
2019-02-05T05:18:31.032Z,75.40
2019-02-05T05:21:00.612Z,75.30
2019-02-05T05:23:29.607Z,74.88
2019-02-05T05:25:58.565Z,74.89
2019-02-05T05:28:27.353Z,74.77
2019-02-05T05:30:56.852Z,74.81
2019-02-05T05:33:25.517Z,74.73
2019-02-05T05:35:54.505Z,74.74
2019-02-05T05:38:23.211Z,74.40
2019-02-05T05:40:51.852Z,74.81
2019-02-05T05:43:20.628Z,74.97
2019-02-05T05:45:49.439Z,75.08
2019-02-05T05:48:18.523Z,74.91
2019-02-05T05:50:47.184Z,75.01
2019-02-05T05:53:16.013Z,75.41
2019-02-05T05:55:44.779Z,75.35
2019-02-05T05:58:22.300Z,74.88
2019-02-05T06:00:43.848Z,74.92
2019-02-05T06:03:12.822Z,74.92
2019-02-05T06:05:41.664Z,74.30
2019-02-05T06:08:10.833Z,73.69
2019-02-05T06:10:39.516Z,73.67
2019-02-05T06:13:08.189Z,73.46
2019-02-05T06:15:37.097Z,73.92
2019-02-05T06:18:06.006Z,74.73
2019-02-05T06:20:35.266Z,74.56
2019-02-05T06:23:04.058Z,74.38
2019-02-05T06:25:33.070Z,74.13
2019-02-05T06:28:01.728Z,74.42
2019-02-05T06:30:30.566Z,74.18
2019-02-05T06:32:59.366Z,74.72
2019-02-05T06:35:28.066Z,73.65
2019-02-05T06:37:56.843Z,74.42
2019-02-05T06:40:25.539Z,73.22
2019-02-05T06:42:54.206Z,73.12
2019-02-05T06:45:23.188Z,73.71
2019-02-05T06:47:52.304Z,73.06
2019-02-05T06:50:21.400Z,72.32
2019-02-05T06:52:50.783Z,72.45
2019-02-05T06:55:19.877Z,72.42
2019-02-05T06:57:48.563Z,72.62
2019-02-05T07:00:22.729Z,73.12
2019-02-05T07:02:53.011Z,73.00
2019-02-05T07:05:21.961Z,73.32
2019-02-05T07:07:51.633Z,73.02
2019-02-05T07:10:24.657Z,72.21
2019-02-05T07:12:54.417Z,72.34
2019-02-05T07:15:23.364Z,72.19
2019-02-05T07:17:52.034Z,72.51
2019-02-05T07:20:21.187Z,71.92
2019-02-05T07:22:50.653Z,73.56
2019-02-05T07:25:20.976Z,73.49
2019-02-05T07:27:49.849Z,74.73
2019-02-05T07:30:21.504Z,74.09
2019-02-05T07:32:50.510Z,73.71
2019-02-05T07:35:19.325Z,73.70
2019-02-05T07:37:48.912Z,73.62
2019-02-05T07:40:20.849Z,74.35
2019-02-05T07:42:49.662Z,73.95
2019-02-05T07:45:23.555Z,73.77
2019-02-05T07:47:52.524Z,73.11
2019-02-05T07:50:29.305Z,72.38
2019-02-05T07:52:57.370Z,72.46
2019-02-05T07:55:29.446Z,73.19
2019-02-05T07:58:00.233Z,72.78
2019-02-05T08:00:31.586Z,73.04
2019-02-05T08:03:00.858Z,72.36
2019-02-05T08:05:33.144Z,71.59
2019-02-05T08:08:03.459Z,71.64
2019-02-05T08:10:33.257Z,71.55
2019-02-05T08:13:03.139Z,70.60
2019-02-05T08:15:33.636Z,70.29
2019-02-05T08:18:03.106Z,69.70
2019-02-05T08:20:32.259Z,69.85
2019-02-05T08:23:01.084Z,69.70
2019-02-05T08:25:31.471Z,69.42
2019-02-05T08:28:01.127Z,69.45
2019-02-05T08:30:35.604Z,69.73
2019-02-05T08:33:05.202Z,69.48
2019-02-05T08:35:34.128Z,69.58
2019-02-05T08:38:03.103Z,70.71
2019-02-05T08:40:32.399Z,70.57
2019-02-05T08:43:01.457Z,69.45
2019-02-05T08:45:35.874Z,69.36
2019-02-05T08:48:06.586Z,68.88
2019-02-05T08:50:35.359Z,68.85
2019-02-05T08:53:04.442Z,69.65
2019-02-05T08:55:33.713Z,69.46
2019-02-05T08:58:05.461Z,69.37
2019-02-05T09:00:36.213Z,69.58
2019-02-05T09:03:05.676Z,69.21
2019-02-05T09:05:34.945Z,69.96
2019-02-05T09:08:04.516Z,69.70
2019-02-05T09:10:38.990Z,68.67
2019-02-05T09:13:08.419Z,68.86
2019-02-05T09:15:37.193Z,69.28
2019-02-05T09:18:06.351Z,68.29
2019-02-05T09:20:35.012Z,67.75
2019-02-05T09:23:07.875Z,66.99
2019-02-05T09:25:36.998Z,66.84
2019-02-05T09:28:06.101Z,68.42
2019-02-05T09:30:36.422Z,67.96
2019-02-05T09:33:16.708Z,67.84
2019-02-05T09:35:46.078Z,68.88
2019-02-05T09:38:14.829Z,69.23
2019-02-05T09:40:47.852Z,68.55
2019-02-05T09:43:16.808Z,68.37
2019-02-05T09:45:45.599Z,67.55
2019-02-05T09:48:14.499Z,67.14
2019-02-05T09:50:44.982Z,66.94
2019-02-05T09:53:14.250Z,66.28
2019-02-05T09:55:45.486Z,66.28
2019-02-05T09:58:14.200Z,65.19
2019-02-05T10:00:43.557Z,64.17
2019-02-05T10:03:12.300Z,63.54
2019-02-05T10:05:41.835Z,64.11
2019-02-05T10:08:10.773Z,63.54
2019-02-05T10:10:39.628Z,62.46
2019-02-05T10:13:08.568Z,61.21
2019-02-05T10:15:40.288Z,60.14
2019-02-05T10:18:11.364Z,60.12
2019-02-05T10:20:40.768Z,60.81
2019-02-05T10:23:10.254Z,60.23
2019-02-05T10:25:39.096Z,59.69
2019-02-05T10:28:08.308Z,58.34
2019-02-05T10:30:39.408Z,57.97
2019-02-05T10:33:10.084Z,57.89
2019-02-05T10:35:39.191Z,57.86
2019-02-05T10:38:08.267Z,58.85
2019-02-05T10:40:37.394Z,59.12
2019-02-05T10:43:06.961Z,58.88
2019-02-05T10:45:36.468Z,58.47
2019-02-05T10:48:07.231Z,57.73
2019-02-05T10:50:37.284Z,57.13
2019-02-05T10:53:06.415Z,56.16
2019-02-05T10:55:35.397Z,55.32
2019-02-05T10:58:04.711Z,54.71
2019-02-05T11:00:34.156Z,54.21
2019-02-05T11:03:05.210Z,52.70
2019-02-05T11:05:34.269Z,52.88
2019-02-05T11:08:03.924Z,53.02
2019-02-05T11:10:32.792Z,52.30
2019-02-05T11:13:01.761Z,49.18
2019-02-05T11:15:32.741Z,40.05
2019-02-05T11:18:03.302Z,36.76
2019-02-05T11:20:34.145Z,34.70
2019-02-05T11:23:03.749Z,38.10
2019-02-05T11:25:43.319Z,32.83
2019-02-05T11:28:11.981Z,31.19
2019-02-05T11:30:46.622Z,29.34
2019-02-05T11:33:15.832Z,27.72
2019-02-05T11:35:44.895Z,26.84
2019-02-05T11:38:15.013Z,25.55
2019-02-05T11:40:46.163Z,23.37
2019-02-05T11:43:16.546Z,23.80
2019-02-05T11:45:46.188Z,21.83
2019-02-05T11:48:19.618Z,21.62
2019-02-05T11:50:48.748Z,23.06
2019-02-05T11:53:20.653Z,26.31
2019-02-05T11:55:52.915Z,24.92
2019-02-05T11:58:22.946Z,25.24
2019-02-05T12:00:53.697Z,26.72
2019-02-05T12:03:22.434Z,24.92
2019-02-05T12:05:51.341Z,23.75
2019-02-05T12:08:20.641Z,22.47
2019-02-05T12:10:49.460Z,20.86
2019-02-05T12:13:18.321Z,23.58
2019-02-05T12:15:47.504Z,25.74
2019-02-05T12:18:16.313Z,25.50
2019-02-05T12:20:45.426Z,23.75
2019-02-05T12:23:14.109Z,23.48
2019-02-05T12:25:42.913Z,22.58
2019-02-05T12:28:11.655Z,21.80
2019-02-05T12:30:45.646Z,21.74
2019-02-05T12:33:23.909Z,20.89
2019-02-05T12:35:52.802Z,21.54
2019-02-05T12:38:21.680Z,22.29
2019-02-05T12:40:50.338Z,22.37
2019-02-05T12:43:19.030Z,23.81
2019-02-05T12:45:47.701Z,23.79
2019-02-05T12:48:16.484Z,22.70
2019-02-05T12:50:46.256Z,23.34
2019-02-05T12:53:15.310Z,23.47
2019-02-05T12:55:44.076Z,21.49
2019-02-05T12:58:13.129Z,21.19
2019-02-05T13:00:58.665Z,22.43
2019-02-05T13:03:20.457Z,23.25
2019-02-05T13:05:49.173Z,25.06
2019-02-05T13:08:17.997Z,28.06
2019-02-05T13:10:49.431Z,30.28
2019-02-05T13:13:18.489Z,32.35
2019-02-05T13:15:47.357Z,35.58
2019-02-05T13:18:16.180Z,37.22
2019-02-05T13:20:45.514Z,38.66
2019-02-05T13:23:15.817Z,40.01
2019-02-05T13:25:44.495Z,40.82
2019-02-05T13:28:13.617Z,42.42
2019-02-05T13:30:42.284Z,42.64
2019-02-05T13:33:12.254Z,43.97
2019-02-05T13:35:41.190Z,44.80
2019-02-05T13:38:16.944Z,44.95
2019-02-05T13:40:47.290Z,44.76
2019-02-05T13:43:18.741Z,44.87
2019-02-05T13:45:49.208Z,44.95
2019-02-05T13:48:19.974Z,45.24
2019-02-05T13:50:57.217Z,46.51
2019-02-05T13:53:33.347Z,46.96
2019-02-05T13:56:05.339Z,46.68
2019-02-05T13:58:34.413Z,47.56
2019-02-05T14:01:03.136Z,47.72
2019-02-05T14:03:33.439Z,47.93
2019-02-05T14:06:02.125Z,49.58
2019-02-05T14:08:31.211Z,49.49
2019-02-05T14:11:00.510Z,49.00
2019-02-05T14:13:29.898Z,49.27
2019-02-05T14:15:58.721Z,49.59
2019-02-05T14:18:27.614Z,49.78
2019-02-05T14:20:56.525Z,50.25
2019-02-05T14:23:25.412Z,50.68
2019-02-05T14:25:54.290Z,50.51
2019-02-05T14:28:23.875Z,51.05
2019-02-05T14:30:53.901Z,51.78
2019-02-05T14:33:23.304Z,52.29
2019-02-05T14:35:52.015Z,52.90
2019-02-05T14:38:21.016Z,53.88
2019-02-05T14:40:49.678Z,54.42
2019-02-05T14:43:18.570Z,54.26
2019-02-05T14:45:47.249Z,53.88
2019-02-05T14:48:16.215Z,53.43
2019-02-05T14:50:47.021Z,53.72
2019-02-05T14:53:20.185Z,54.24
2019-02-05T14:55:48.882Z,54.84
2019-02-05T14:58:27.652Z,55.01
2019-02-05T15:00:56.412Z,55.63
2019-02-05T15:03:26.545Z,55.89
2019-02-05T15:05:55.238Z,56.24
2019-02-05T15:08:25.477Z,56.70
2019-02-05T15:10:55.063Z,57.02
2019-02-05T15:13:24.156Z,57.26
2019-02-05T15:15:53.168Z,58.17
2019-02-05T15:18:21.859Z,58.43
2019-02-05T15:20:50.832Z,58.75
2019-02-05T15:23:20.413Z,59.30
2019-02-05T15:25:49.134Z,59.52
2019-02-05T15:28:17.821Z,60.41
2019-02-05T15:30:46.767Z,60.93
2019-02-05T15:33:34.851Z,61.95
2019-02-05T15:36:05.094Z,61.82
2019-02-05T15:38:33.757Z,62.52
2019-02-05T15:41:02.431Z,63.36
2019-02-05T15:43:31.656Z,63.64
2019-02-05T15:46:00.362Z,64.15
2019-02-05T15:48:29.108Z,64.67
2019-02-05T15:50:57.909Z,64.76
2019-02-05T15:53:26.917Z,64.88
2019-02-05T15:55:55.905Z,65.66
2019-02-05T15:58:24.596Z,65.74
2019-02-05T16:00:53.453Z,66.37
2019-02-05T16:03:22.265Z,66.74
2019-02-05T16:05:51.078Z,66.97
2019-02-05T16:08:20.228Z,67.49
2019-02-05T16:10:48.956Z,67.63
2019-02-05T16:13:17.693Z,68.38
2019-02-05T16:15:46.416Z,68.37
2019-02-05T16:18:15.463Z,68.29
2019-02-05T16:20:44.228Z,67.79
2019-02-05T16:23:12.932Z,68.36
2019-02-05T16:25:41.605Z,67.80
2019-02-05T16:28:10.667Z,67.90
2019-02-05T16:30:39.342Z,68.99
2019-02-05T16:33:08.308Z,69.30
2019-02-05T16:35:37.109Z,69.51
2019-02-05T16:38:06.553Z,69.61
2019-02-05T16:40:38.215Z,70.10
2019-02-05T16:43:07.236Z,70.22
2019-02-05T16:45:35.976Z,69.63
2019-02-05T16:48:05.364Z,69.79
2019-02-05T16:50:40.054Z,69.87
2019-02-05T16:53:09.648Z,69.48
2019-02-05T16:55:38.369Z,69.42
2019-02-05T16:58:07.652Z,69.45
2019-02-05T17:00:37.731Z,69.45
2019-02-05T17:03:07.651Z,69.31
2019-02-05T17:05:39.204Z,68.94
2019-02-05T17:08:08.440Z,68.91
2019-02-05T17:10:37.127Z,68.87
2019-02-05T17:13:06.203Z,68.72
2019-02-05T17:15:35.293Z,68.72
2019-02-05T17:18:04.394Z,68.33
2019-02-05T17:20:33.972Z,68.19
2019-02-05T17:23:03.227Z,67.92
2019-02-05T17:25:32.024Z,67.74
2019-02-05T17:28:02.523Z,67.57
2019-02-05T17:30:34.123Z,67.55
2019-02-05T17:33:02.843Z,67.60
2019-02-05T17:35:31.789Z,67.61
2019-02-05T17:38:00.902Z,67.14
2019-02-05T17:40:29.791Z,67.39
2019-02-05T17:42:58.469Z,67.44
2019-02-05T17:45:32.641Z,67.37
2019-02-05T17:48:03.128Z,67.21
2019-02-05T17:50:31.941Z,67.30
2019-02-05T17:53:01.110Z,67.02
2019-02-05T17:55:30.306Z,66.87
2019-02-05T17:57:58.985Z,67.08
2019-02-05T18:00:31.756Z,66.67
2019-02-05T18:03:01.165Z,66.58
2019-02-05T18:05:30.100Z,66.66
2019-02-05T18:07:59.058Z,66.75
2019-02-05T18:10:28.674Z,67.12
2019-02-05T18:12:57.383Z,66.80
2019-02-05T18:15:34.055Z,66.88
2019-02-05T18:18:02.830Z,66.71
2019-02-05T18:20:32.002Z,66.67
2019-02-05T18:23:00.733Z,66.60
2019-02-05T18:25:29.457Z,66.93
2019-02-05T18:27:58.275Z,66.35
2019-02-05T18:30:32.222Z,66.57
2019-02-05T18:33:04.533Z,66.81
2019-02-05T18:35:32.275Z,66.67
2019-02-05T18:38:02.048Z,66.46
2019-02-05T18:40:31.002Z,66.03
2019-02-05T18:42:59.980Z,66.27
2019-02-05T18:45:28.830Z,66.48
2019-02-05T18:47:57.619Z,66.63
2019-02-05T18:50:28.184Z,67.44
2019-02-05T18:52:57.111Z,66.85
2019-02-05T18:55:28.699Z,66.71
2019-02-05T18:58:08.420Z,66.81
2019-02-05T19:00:38.691Z,67.00
2019-02-05T19:03:15.036Z,67.02
2019-02-05T19:05:37.472Z,66.36
2019-02-05T19:08:06.814Z,66.22
2019-02-05T19:10:35.863Z,66.94
2019-02-05T19:13:05.133Z,66.54
2019-02-05T19:15:38.795Z,66.90
2019-02-05T19:18:08.949Z,67.37
2019-02-05T19:20:37.631Z,66.99
2019-02-05T19:23:08.501Z,66.64
2019-02-05T19:25:45.494Z,66.75
2019-02-05T19:28:28.001Z,67.02
2019-02-05T19:30:58.308Z,67.54
2019-02-05T19:33:27.637Z,67.26
2019-02-05T19:35:56.440Z,67.10
2019-02-05T19:38:25.104Z,67.21
2019-02-05T19:40:57.609Z,67.15
2019-02-05T19:43:24.168Z,67.29
2019-02-05T19:46:00.517Z,66.85
2019-02-05T19:48:30.973Z,66.79
2019-02-05T19:51:00.492Z,66.89
2019-02-05T19:53:29.332Z,66.24
2019-02-05T19:55:58.277Z,66.62
2019-02-05T19:58:27.155Z,66.96
2019-02-05T20:00:56.193Z,66.88
2019-02-05T20:03:25.005Z,66.60
2019-02-05T20:05:53.666Z,66.39
2019-02-05T20:08:22.342Z,66.92
2019-02-05T20:10:51.017Z,66.92
2019-02-05T20:13:19.673Z,66.92
2019-02-05T20:15:51.167Z,67.37
2019-02-05T20:18:18.903Z,66.96
2019-02-05T20:20:47.591Z,67.02
2019-02-05T20:23:16.275Z,66.92
2019-02-05T20:25:45.003Z,67.24
2019-02-05T20:28:14.071Z,67.28
2019-02-05T20:30:42.754Z,67.43
2019-02-05T20:33:11.814Z,67.39
2019-02-05T20:35:40.555Z,67.29
2019-02-05T20:38:09.268Z,67.44
2019-02-05T20:40:37.937Z,67.28
2019-02-05T20:43:06.605Z,67.10
2019-02-05T20:45:35.287Z,66.59
2019-02-05T20:48:04.567Z,66.51
2019-02-05T20:50:33.450Z,66.60
2019-02-05T20:53:13.008Z,66.62
2019-02-05T20:55:32.551Z,66.36
2019-02-05T20:58:01.201Z,66.83
2019-02-05T21:00:33.723Z,66.68
2019-02-05T21:03:02.574Z,66.31
2019-02-05T21:05:31.261Z,66.45
2019-02-05T21:08:00.297Z,67.25
2019-02-05T21:10:31.432Z,67.48
2019-02-05T21:13:00.223Z,67.30
2019-02-05T21:15:29.093Z,67.26
2019-02-05T21:17:57.907Z,68.24
2019-02-05T21:20:32.738Z,68.64
2019-02-05T21:22:59.235Z,68.80
2019-02-05T21:25:28.427Z,68.84
2019-02-05T21:27:58.211Z,68.76
2019-02-05T21:30:28.070Z,68.85
2019-02-05T21:32:56.780Z,68.44
2019-02-05T21:35:25.501Z,68.73
2019-02-05T21:37:54.262Z,68.30
2019-02-05T21:40:31.302Z,68.61
2019-02-05T21:42:58.628Z,68.51
2019-02-05T21:45:33.558Z,68.27
2019-02-05T21:48:02.243Z,68.01
2019-02-05T21:50:30.965Z,67.74
2019-02-05T21:53:00.115Z,67.46
2019-02-05T21:55:29.497Z,67.61
2019-02-05T21:57:58.295Z,67.40
2019-02-05T22:00:33.501Z,67.53
2019-02-05T22:03:02.421Z,67.32
2019-02-05T22:05:32.826Z,67.60
2019-02-05T22:08:02.120Z,67.73
2019-02-05T22:10:30.806Z,67.85
2019-02-05T22:12:59.549Z,68.24
2019-02-05T22:15:28.813Z,68.12
2019-02-05T22:17:57.587Z,68.16
2019-02-05T22:20:28.030Z,68.98
2019-02-05T22:22:57.438Z,69.26
2019-02-05T22:25:29.040Z,69.73
2019-02-05T22:27:57.714Z,70.10
2019-02-05T22:30:31.853Z,69.83
2019-02-05T22:33:00.922Z,69.45
2019-02-05T22:35:29.999Z,69.27
2019-02-05T22:37:58.702Z,69.00
2019-02-05T22:40:28.174Z,69.13
2019-02-05T22:42:57.336Z,68.24
2019-02-05T22:45:31.229Z,68.60
2019-02-05T22:48:00.006Z,68.61
2019-02-05T22:50:31.423Z,68.80
2019-02-05T22:53:00.408Z,68.86
2019-02-05T22:55:29.173Z,68.34
2019-02-05T22:57:57.937Z,68.73
2019-02-05T23:00:50.131Z,68.93
2019-02-05T23:03:24.488Z,69.83
2019-02-05T23:06:14.880Z,69.36
2019-02-05T23:08:43.549Z,69.13
2019-02-05T23:11:31.865Z,68.77
2019-02-05T23:14:00.529Z,68.65
2019-02-05T23:16:29.196Z,68.67
2019-02-05T23:18:58.034Z,68.40
2019-02-05T23:21:26.702Z,67.76
2019-02-05T23:23:55.760Z,67.56
2019-02-05T23:26:24.426Z,67.63
2019-02-05T23:28:53.130Z,67.99
2019-02-05T23:31:21.844Z,67.33
2019-02-05T23:33:50.517Z,67.25
2019-02-05T23:36:19.344Z,67.43
2019-02-05T23:38:48.009Z,66.68
2019-02-05T23:41:16.971Z,66.35
2019-02-05T23:43:45.612Z,66.81
2019-02-05T23:46:14.275Z,67.29
2019-02-05T23:48:42.946Z,66.58
2019-02-05T23:51:11.995Z,66.82
2019-02-05T23:53:40.679Z,66.79
2019-02-05T23:56:09.851Z,66.15
2019-02-05T23:58:38.504Z,66.31
